Time;durP1;ratioP1;P1;durP2;ratioP2;P2;SDS_P1;SDS_P2;PMS_P1;PMS_P2;Temp;Humidity;BMP_temperature;BMP_pressure;BME280_temperature;BME280_humidity;BME280_pressure;Samples;Min_cycle;Max_cycle;Signal;HPM_P1;HPM_P2
2022/11/20 00:01:36;;;;;;;13.70;11.15;;;;;;;0.25;68.22;100652.20;1745590;80;21392;-77
2022/11/20 00:04:06;;;;;;;14.33;11.55;;;;;;;0.25;68.30;100654.80;1764780;81;21826;-77
2022/11/20 00:06:33;;;;;;;16.30;12.50;;;;;;;0.24;68.27;100654.41;1727412;81;21048;-77
2022/11/20 00:09:01;;;;;;;14.93;11.70;;;;;;;0.25;68.33;100654.80;1717797;82;21576;-77
2022/11/20 00:11:30;;;;;;;15.98;11.63;;;;;;;0.23;68.41;100657.45;1751378;81;20989;-76
2022/11/20 00:14:02;;;;;;;15.25;11.90;;;;;;;0.21;68.48;100663.16;1752144;81;20882;-76
2022/11/20 00:16:32;;;;;;;15.18;11.93;;;;;;;0.19;68.51;100675.35;1758738;80;21587;-77
2022/11/20 00:18:59;;;;;;;15.38;12.10;;;;;;;0.20;68.57;100669.70;1732015;81;20944;-77
2022/11/20 00:21:28;;;;;;;15.63;12.70;;;;;;;0.19;68.58;100660.19;1706745;80;20989;-77
2022/11/20 00:24:00;;;;;;;15.60;12.13;;;;;;;0.20;68.71;100657.56;1713351;82;20973;-77
2022/11/20 00:26:28;;;;;;;15.58;12.33;;;;;;;0.20;68.88;100664.52;1739348;81;20936;-77
2022/11/20 00:29:00;;;;;;;14.65;11.43;;;;;;;0.19;68.87;100674.47;1735812;82;21858;-76
2022/11/20 00:31:28;;;;;;;14.73;11.08;;;;;;;0.20;68.94;100677.50;1735011;81;20949;-77
2022/11/20 00:33:54;;;;;;;15.72;11.78;;;;;;;0.16;68.98;100684.97;1756449;81;20997;-76
2022/11/20 00:36:24;;;;;;;20.10;14.58;;;;;;;0.15;69.02;100690.61;1724617;81;21452;-76
2022/11/20 00:38:54;;;;;;;25.45;17.17;;;;;;;0.15;69.03;100691.91;1733319;82;21493;-75
2022/11/20 00:41:24;;;;;;;30.70;21.37;;;;;;;0.15;69.12;100691.91;1737640;81;22549;-76
2022/11/20 00:43:53;;;;;;;32.42;21.60;;;;;;;0.13;69.07;100688.97;1722593;81;21012;-75
2022/11/20 00:46:22;;;;;;;31.00;20.20;;;;;;;0.14;69.06;100686.77;1732764;81;21080;-75
2022/11/20 00:48:54;;;;;;;20.80;15.32;;;;;;;0.12;69.07;100692.47;1719691;81;20965;-75
2022/11/20 00:51:25;;;;;;;22.07;14.78;;;;;;;0.08;69.07;100696.04;1725669;82;21052;-75
2022/11/20 00:53:51;;;;;;;18.98;14.18;;;;;;;0.05;69.06;100706.08;1751480;82;22487;-75
2022/11/20 00:56:19;;;;;;;17.75;13.53;;;;;;;0.03;69.07;100716.98;1734142;81;21420;-74
2022/11/20 00:58:48;;;;;;;19.02;14.25;;;;;;;0.02;69.13;100723.52;1755833;81;20962;-75
2022/11/20 01:01:25;;;;;;;16.25;12.98;;;;;;;-0.01;69.17;100721.39;1745651;81;21268;-75
2022/11/20 01:03:54;;;;;;;16.57;12.10;;;;;;;-0.03;69.22;100737.92;1749356;81;21091;-75
2022/11/20 01:06:27;;;;;;;15.23;12.60;;;;;;;-0.04;69.27;100750.06;1715916;82;21906;-74
2022/11/20 01:08:58;;;;;;;16.25;12.40;;;;;;;-0.04;69.30;100743.56;1715115;81;20997;-76
2022/11/20 01:11:28;;;;;;;17.60;13.40;;;;;;;-0.03;69.34;100742.66;1737464;81;21006;-76
2022/11/20 01:13:56;;;;;;;18.85;13.65;;;;;;;-0.03;69.41;100738.77;1749658;81;21015;-76
2022/11/20 01:16:36;;;;;;;18.30;14.13;;;;;;;-0.01;69.44;100738.27;1731959;81;21000;-76
2022/11/20 01:19:05;;;;;;;19.20;14.33;;;;;;;0.01;69.49;100738.70;1716985;81;21925;-74
2022/11/20 01:21:39;;;;;;;21.95;15.15;;;;;;;0.03;69.61;100736.45;1710239;81;21479;-75
2022/11/20 01:24:13;;;;;;;25.52;17.73;;;;;;;0.07;69.79;100733.30;1743576;81;20960;-77
2022/11/20 01:26:40;;;;;;;25.95;18.80;;;;;;;0.02;69.79;100730.02;1738111;81;20949;-77
2022/11/20 01:29:24;;;;;;;27.77;18.42;;;;;;;-0.01;69.85;100721.39;1722378;81;21393;-77
2022/11/20 01:31:52;;;;;;;24.05;18.32;;;;;;;0.03;69.98;100715.68;1750127;80;21838;-76
2022/11/20 01:34:21;;;;;;;24.27;17.15;;;;;;;0.07;70.00;100719.87;1738104;80;21440;-77
2022/11/20 01:36:52;;;;;;;26.30;18.62;;;;;;;0.08;69.98;100726.76;1743667;80;21008;-76
2022/11/20 01:39:23;;;;;;;27.25;18.42;;;;;;;0.07;69.90;100728.95;1724874;82;20989;-77
2022/11/20 01:44:59;;;;;;;27.05;19.23;;;;;;;0.09;70.08;100719.36;1751163;80;20952;-76
2022/11/20 01:47:42;;;;;;;29.27;19.02;;;;;;;0.13;70.15;100725.33;1724408;82;20896;-77
2022/11/20 01:50:17;;;;;;;27.60;19.87;;;;;;;0.14;70.30;100722.69;1762609;80;21067;-76
2022/11/20 01:52:56;;;;;;;35.30;23.75;;;;;;;0.12;70.37;100717.14;1760196;80;20980;-77
2022/11/20 01:55:28;;;;;;;37.88;23.92;;;;;;;0.12;70.42;100723.64;1734884;80;21014;-74
2022/11/20 01:57:56;;;;;;;30.72;22.50;;;;;;;0.10;70.49;100721.09;1722699;80;23853;-75
2022/11/20 02:00:22;;;;;;;31.90;22.13;;;;;;;0.12;70.53;100726.23;1735513;80;21004;-74
2022/11/20 02:02:57;;;;;;;30.80;21.90;;;;;;;0.12;70.56;100733.58;1778329;80;20957;-75
2022/11/20 02:05:40;;;;;;;28.55;20.72;;;;;;;0.16;70.56;100733.87;1752656;80;21052;-75
2022/11/20 02:08:06;;;;;;;29.20;19.75;;;;;;;0.17;70.49;100735.56;1736956;80;21371;-76
2022/11/20 02:10:34;;;;;;;28.47;19.42;;;;;;;0.17;70.42;100734.27;1765487;80;21836;-75
2022/11/20 02:15:48;;;;;;;30.08;20.40;;;;;;;0.16;70.30;100738.22;1747453;80;21478;-76
2022/11/20 02:18:16;;;;;;;26.90;19.27;;;;;;;0.17;70.31;100745.95;1748733;80;20992;-76
2022/11/20 02:20:45;;;;;;;28.65;20.17;;;;;;;0.19;70.36;100746.78;1744369;80;20995;-75
2022/11/20 02:23:19;;;;;;;29.65;19.32;;;;;;;0.21;70.43;100748.88;1737542;80;21956;-75
2022/11/20 02:25:46;;;;;;;25.12;18.20;;;;;;;0.23;70.40;100744.48;1713455;80;21525;-75
2022/11/20 02:28:13;;;;;;;23.65;16.90;;;;;;;0.22;70.34;100749.28;1778388;80;20996;-75
2022/11/20 02:30:40;;;;;;;24.52;17.95;;;;;;;0.22;70.32;100738.89;1744204;80;20959;-75
2022/11/20 02:33:07;;;;;;;25.80;17.20;;;;;;;0.23;70.27;100742.34;1732996;80;20995;-74
2022/11/20 02:35:41;;;;;;;22.55;16.93;;;;;;;0.22;70.18;100739.34;1755448;80;21692;-74
2022/11/20 02:38:08;;;;;;;25.52;17.05;;;;;;;0.22;70.12;100736.73;1744192;80;21581;-74
2022/11/20 02:40:34;;;;;;;25.85;18.17;;;;;;;0.22;70.06;100741.94;1704065;80;20979;-74
2022/11/20 02:43:01;;;;;;;25.95;18.30;;;;;;;0.21;70.09;100739.78;1747328;82;21019;-74
2022/11/20 02:45:27;;;;;;;26.85;18.98;;;;;;;0.21;70.02;100746.28;1744995;80;20933;-74
2022/11/20 02:47:54;;;;;;;24.52;17.25;;;;;;;0.19;69.97;100753.70;1745693;82;21946;-74
2022/11/20 02:50:20;;;;;;;25.57;18.23;;;;;;;0.19;70.00;100757.59;1747431;80;21371;-75
2022/11/20 02:52:47;;;;;;;24.00;16.25;;;;;;;0.19;70.09;100758.89;1767991;80;21115;-74
2022/11/20 02:55:14;;;;;;;25.30;18.12;;;;;;;0.19;70.17;100762.37;1757973;80;21529;-75
2022/11/20 02:57:41;;;;;;;24.45;17.27;;;;;;;0.20;70.16;100761.47;1728594;83;20946;-75
2022/11/20 03:00:10;;;;;;;23.32;16.65;;;;;;;0.19;70.18;100767.56;1728829;80;21938;-74
2022/11/20 03:02:37;;;;;;;26.15;17.05;;;;;;;0.20;70.13;100777.51;1761953;80;20996;-74
2022/11/20 03:05:06;;;;;;;20.92;15.10;;;;;;;0.18;70.11;100780.58;1764892;80;20997;-74
2022/11/20 03:07:34;;;;;;;18.82;13.62;;;;;;;0.15;70.09;100782.83;1765428;80;21031;-74
2022/11/20 03:10:04;;;;;;;21.48;15.15;;;;;;;0.15;70.09;100787.17;1757364;80;21040;-75
2022/11/20 03:12:30;;;;;;;22.10;15.10;;;;;;;0.12;70.12;100786.83;1778050;80;21886;-74
2022/11/20 03:14:57;;;;;;;22.20;16.05;;;;;;;0.12;70.17;100790.72;1730906;80;20933;-72
2022/11/20 03:17:24;;;;;;;22.22;15.98;;;;;;;0.14;70.22;100794.11;1716916;83;21059;-75
2022/11/20 03:19:50;;;;;;;21.65;15.38;;;;;;;0.15;70.32;100789.31;1732619;80;21072;-75
2022/11/20 03:22:17;;;;;;;21.95;14.50;;;;;;;0.18;70.40;100784.47;1772421;80;20936;-75
2022/11/20 03:24:43;;;;;;;21.50;14.63;;;;;;;0.18;70.36;100778.83;1757358;80;21844;-75
2022/11/20 03:27:09;;;;;;;21.55;15.15;;;;;;;0.18;70.39;100770.19;1765368;80;20965;-75
2022/11/20 03:29:36;;;;;;;19.77;14.87;;;;;;;0.19;70.42;100775.36;1757490;80;21007;-74
2022/11/20 03:32:02;;;;;;;18.67;14.13;;;;;;;0.22;70.46;100777.01;1759194;81;21451;-74
2022/11/20 03:34:30;;;;;;;19.48;14.28;;;;;;;0.25;70.44;100775.60;1764828;81;20937;-75
2022/11/20 03:36:56;;;;;;;19.90;14.00;;;;;;;0.24;70.39;100774.75;1756746;81;22399;-74
2022/11/20 03:39:22;;;;;;;18.15;14.38;;;;;;;0.23;70.34;100785.20;1723091;81;21031;-74
2022/11/20 03:41:49;;;;;;;20.95;14.50;;;;;;;0.20;70.30;100786.59;1740482;81;21052;-74
2022/11/20 03:44:15;;;;;;;19.15;13.83;;;;;;;0.17;70.35;100786.22;1731937;80;20981;-74
2022/11/20 03:46:42;;;;;;;17.25;12.75;;;;;;;0.19;70.43;100801.75;1745038;81;21036;-73
2022/11/20 03:49:09;;;;;;;15.60;13.25;;;;;;;0.22;70.47;100787.39;1744255;81;21488;-73
2022/11/20 03:51:36;;;;;;;16.37;12.93;;;;;;;0.22;70.46;100777.85;1735368;81;21037;-73
2022/11/20 03:54:08;;;;;;;18.65;13.72;;;;;;;0.22;70.43;100767.47;1752838;81;21482;-74
2022/11/20 03:56:38;;;;;;;20.57;13.98;;;;;;;0.24;70.47;100762.22;1734922;81;21352;-74
2022/11/20 03:59:04;;;;;;;20.48;14.58;;;;;;;0.27;70.55;100759.06;1746493;81;21013;-74
2022/11/20 04:01:34;;;;;;;21.93;17.12;;;;;;;0.31;70.72;100753.34;1748385;81;21949;-73
2022/11/20 04:04:01;;;;;;;23.05;17.20;;;;;;;0.35;70.86;100752.78;1764726;81;21061;-74
2022/11/20 04:06:35;;;;;;;19.73;15.63;;;;;;;0.39;70.96;100748.77;1748565;81;21475;-74
2022/11/20 04:09:01;;;;;;;21.77;16.25;;;;;;;0.42;70.98;100750.41;1730261;81;20969;-73
2022/11/20 04:11:31;;;;;;;18.12;14.13;;;;;;;0.44;70.97;100748.60;1724776;81;20955;-73
2022/11/20 04:14:04;;;;;;;19.32;14.50;;;;;;;0.44;70.86;100742.95;1741992;81;21769;-74
2022/11/20 04:16:33;;;;;;;20.02;15.13;;;;;;;0.46;70.74;100748.09;1746301;81;20941;-74
2022/11/20 04:19:01;;;;;;;17.75;13.30;;;;;;;0.46;70.72;100738.55;1733684;82;21020;-74
2022/11/20 04:21:28;;;;;;;19.55;14.28;;;;;;;0.46;70.88;100729.45;1753848;81;20953;-71
2022/11/20 04:23:55;;;;;;;19.25;13.78;;;;;;;0.48;71.01;100735.48;1764794;81;20992;-74
2022/11/20 04:26:26;;;;;;;18.87;14.35;;;;;;;0.48;71.17;100728.98;1671252;84;21938;-75
2022/11/20 04:28:53;;;;;;;18.73;14.20;;;;;;;0.50;71.35;100723.28;1698812;83;21534;-74
2022/11/20 04:31:24;;;;;;;19.25;14.10;;;;;;;0.51;71.48;100719.77;1709733;84;20960;-74
2022/11/20 04:33:51;;;;;;;19.65;14.73;;;;;;;0.51;71.56;100714.58;1688677;83;21060;-74
2022/11/20 04:36:26;;;;;;;18.42;14.55;;;;;;;0.52;71.70;100699.38;1681189;84;21063;-74
2022/11/20 04:39:01;;;;;;;19.87;14.75;;;;;;;0.54;71.79;100698.02;1681830;84;21923;-75
2022/11/20 04:41:31;;;;;;;18.45;14.90;;;;;;;0.53;71.86;100699.77;1682235;83;21437;-72
2022/11/20 04:44:02;;;;;;;19.37;14.95;;;;;;;0.53;71.96;100702.38;1685848;83;20972;-75
2022/11/20 04:46:29;;;;;;;17.70;14.65;;;;;;;0.54;72.00;100706.67;1738963;81;20973;-75
2022/11/20 04:48:56;;;;;;;19.65;14.85;;;;;;;0.53;71.98;100703.67;1738105;81;21384;-75
2022/11/20 04:51:22;;;;;;;19.20;14.25;;;;;;;0.52;71.99;100694.19;1727227;81;22469;-74
2022/11/20 04:53:49;;;;;;;17.75;13.90;;;;;;;0.53;72.01;100699.77;1740140;80;21043;-74
2022/11/20 04:56:16;;;;;;;18.70;13.98;;;;;;;0.52;72.04;100695.48;1731115;81;21055;-75
2022/11/20 04:58:43;;;;;;;19.00;13.93;;;;;;;0.52;72.05;100688.98;1755093;81;20983;-74
2022/11/20 05:01:16;;;;;;;18.07;14.25;;;;;;;0.50;72.01;100689.48;1743672;81;20975;-75
2022/11/20 05:03:46;;;;;;;19.32;14.85;;;;;;;0.52;72.00;100690.28;1733521;82;21854;-75
2022/11/20 05:06:16;;;;;;;18.05;14.75;;;;;;;0.51;72.02;100687.29;1753743;81;21044;-75
2022/11/20 05:08:44;;;;;;;20.82;15.55;;;;;;;0.52;72.13;100690.73;1707848;81;21439;-75
2022/11/20 05:11:13;;;;;;;17.12;14.25;;;;;;;0.51;72.20;100687.29;1733677;82;20946;-75
2022/11/20 05:13:41;;;;;;;19.82;15.83;;;;;;;0.50;72.28;100690.80;1737300;81;21013;-74
2022/11/20 05:16:12;;;;;;;20.23;15.53;;;;;;;0.50;72.45;100689.48;1726235;81;21059;-75
2022/11/20 05:18:41;;;;;;;22.00;17.15;;;;;;;0.50;72.59;100689.48;1706577;83;21048;-75
2022/11/20 05:21:09;;;;;;;18.95;16.10;;;;;;;0.52;72.67;100684.23;1731472;81;20992;-76
2022/11/20 05:23:35;;;;;;;19.67;16.17;;;;;;;0.52;72.70;100685.54;1758388;81;21052;-74
2022/11/20 05:26:02;;;;;;;17.57;14.78;;;;;;;0.51;72.78;100683.39;1737984;81;21129;-74
2022/11/20 05:28:29;;;;;;;18.75;15.23;;;;;;;0.52;72.79;100679.04;1733198;81;22194;-74
2022/11/20 05:30:56;;;;;;;19.10;15.03;;;;;;;0.51;72.88;100686.44;1730984;81;20985;-74
2022/11/20 05:33:23;;;;;;;17.77;14.05;;;;;;;0.50;72.97;100683.00;1715156;82;21390;-73
2022/11/20 05:35:49;;;;;;;16.93;14.00;;;;;;;0.50;73.09;100679.09;1716782;82;21858;-75
2022/11/20 05:38:16;;;;;;;15.60;13.48;;;;;;;0.49;73.15;100677.40;1735648;82;21453;-75
2022/11/20 05:40:43;;;;;;;20.72;15.48;;;;;;;0.51;73.21;100673.45;1749346;81;22544;-75
2022/11/20 05:43:10;;;;;;;16.10;13.20;;;;;;;0.50;73.22;100674.35;1734443;81;21404;-74
2022/11/20 05:45:38;;;;;;;19.85;14.28;;;;;;;0.51;73.37;100671.70;1710594;82;21099;-74
2022/11/20 05:48:04;;;;;;;18.35;14.83;;;;;;;0.54;73.46;100670.28;1739511;81;20993;-75
2022/11/20 05:50:31;;;;;;;19.75;14.40;;;;;;;0.52;73.49;100672.09;1746762;82;20941;-74
2022/11/20 05:52:59;;;;;;;16.60;14.13;;;;;;;0.53;73.55;100667.73;1744265;82;22225;-74
2022/11/20 05:55:27;;;;;;;17.30;13.38;;;;;;;0.55;73.67;100669.38;1727892;82;21048;-75
2022/11/20 05:57:54;;;;;;;15.93;13.40;;;;;;;0.57;73.71;100655.88;1724934;81;21435;-74
2022/11/20 06:00:22;;;;;;;14.13;12.63;;;;;;;0.59;73.71;100655.00;1733059;80;21503;-75
2022/11/20 06:02:49;;;;;;;15.25;12.50;;;;;;;0.60;73.74;100656.25;1737219;82;20976;-74
2022/11/20 06:05:15;;;;;;;14.47;11.75;;;;;;;0.60;73.66;100658.84;1749762;82;21817;-75
2022/11/20 06:07:43;;;;;;;15.72;13.10;;;;;;;0.59;73.70;100654.55;1736305;81;21484;-74
2022/11/20 06:10:09;;;;;;;16.27;13.75;;;;;;;0.60;73.71;100660.59;1734311;81;21354;-74
2022/11/20 06:12:37;;;;;;;16.15;13.70;;;;;;;0.61;73.76;100657.94;1744180;80;21357;-74
2022/11/20 06:15:05;;;;;;;16.42;13.50;;;;;;;0.64;73.77;100651.33;1745962;81;20965;-75
2022/11/20 06:17:33;;;;;;;16.10;13.95;;;;;;;0.67;73.79;100654.27;1723036;81;21925;-74
2022/11/20 06:20:01;;;;;;;15.72;13.80;;;;;;;0.69;73.76;100656.39;1708322;82;20977;-75
2022/11/20 06:22:28;;;;;;;13.68;12.18;;;;;;;0.71;73.85;100642.42;1729707;82;21274;-75
2022/11/20 06:24:56;;;;;;;14.85;12.55;;;;;;;0.74;73.84;100635.81;1683185;84;21513;-74
2022/11/20 06:27:23;;;;;;;13.58;11.93;;;;;;;0.74;73.78;100637.56;1699913;83;21595;-75
2022/11/20 06:29:50;;;;;;;13.83;11.40;;;;;;;0.73;73.78;100634.56;1725885;83;22187;-75
2022/11/20 06:32:17;;;;;;;15.03;12.03;;;;;;;0.72;73.80;100636.77;1725700;81;21097;-74
2022/11/20 06:34:45;;;;;;;15.90;12.40;;;;;;;0.67;73.77;100634.77;1735534;82;21060;-74
2022/11/20 06:37:12;;;;;;;14.03;11.75;;;;;;;0.64;73.85;100630.53;1718932;81;21486;-75
2022/11/20 06:39:39;;;;;;;14.20;12.00;;;;;;;0.62;73.89;100632.80;1746948;81;20993;-75
2022/11/20 06:42:07;;;;;;;14.70;12.63;;;;;;;0.62;73.90;100634.09;1745706;81;22026;-75
2022/11/20 06:44:34;;;;;;;14.07;12.05;;;;;;;0.60;73.95;100636.75;1730854;81;20986;-75
2022/11/20 06:47:01;;;;;;;12.47;11.18;;;;;;;0.62;74.05;100632.80;1694210;84;21021;-75
2022/11/20 06:49:28;;;;;;;13.68;12.18;;;;;;;0.65;74.08;100635.28;1741686;81;20953;-75
2022/11/20 06:51:55;;;;;;;14.90;12.35;;;;;;;0.65;74.10;100637.42;1717830;82;20996;-74
2022/11/20 06:54:21;;;;;;;15.15;12.82;;;;;;;0.66;74.17;100631.77;1718005;82;21953;-74
2022/11/20 06:56:49;;;;;;;14.95;12.10;;;;;;;0.67;74.17;100628.27;1731173;81;21008;-74
2022/11/20 06:59:16;;;;;;;13.78;12.00;;;;;;;0.66;74.15;100618.78;1748943;81;21008;-75
2022/11/20 07:01:42;;;;;;;13.60;11.88;;;;;;;0.63;74.23;100609.34;1727184;82;21077;-74
2022/11/20 07:04:08;;;;;;;13.43;11.50;;;;;;;0.62;74.28;100605.50;1715894;82;20958;-75
2022/11/20 07:06:36;;;;;;;13.45;11.63;;;;;;;0.62;74.31;100604.20;1727507;81;22524;-74
2022/11/20 07:09:03;;;;;;;13.28;11.03;;;;;;;0.60;74.31;100602.11;1747172;80;21040;-74
2022/11/20 07:11:31;;;;;;;11.68;10.32;;;;;;;0.60;74.40;100600.81;1737048;81;21363;-74
2022/11/20 07:13:58;;;;;;;14.78;12.05;;;;;;;0.58;74.49;100603.47;1717869;82;21339;-74
2022/11/20 07:16:24;;;;;;;14.65;11.48;;;;;;;0.55;74.50;100599.66;1727619;81;21066;-74
2022/11/20 07:18:52;;;;;;;13.88;12.37;;;;;;;0.54;74.56;100590.17;1736371;81;21910;-74
2022/11/20 07:21:20;;;;;;;13.58;11.93;;;;;;;0.52;74.59;100599.32;1746375;81;20973;-75
2022/11/20 07:23:48;;;;;;;13.70;11.65;;;;;;;0.52;74.64;100594.13;1738012;81;21055;-75
2022/11/20 07:26:14;;;;;;;14.73;12.10;;;;;;;0.52;74.69;100595.42;1731515;81;21008;-75
2022/11/20 07:28:45;;;;;;;13.30;11.78;;;;;;;0.50;74.71;100599.83;1737422;81;20956;-74
2022/11/20 07:31:12;;;;;;;12.98;11.03;;;;;;;0.51;74.77;100597.63;1761942;81;22529;-75
2022/11/20 07:33:41;;;;;;;12.78;11.33;;;;;;;0.51;74.80;100604.13;1766565;81;21472;-74
2022/11/20 07:36:11;;;;;;;13.48;11.40;;;;;;;0.51;74.83;100604.13;1747429;81;20928;-74
2022/11/20 07:38:38;;;;;;;13.08;11.25;;;;;;;0.51;74.83;100610.63;1728103;81;20952;-73
2022/11/20 07:41:04;;;;;;;13.93;12.10;;;;;;;0.51;74.84;100608.48;1730096;81;21035;-75
2022/11/20 07:43:31;;;;;;;13.72;10.88;;;;;;;0.52;74.89;100612.77;1720493;81;21824;-74
2022/11/20 07:45:58;;;;;;;13.00;10.80;;;;;;;0.53;74.90;100597.11;1749388;80;20913;-74
2022/11/20 07:48:25;;;;;;;16.15;12.82;;;;;;;0.55;74.90;100590.56;1760389;81;20996;-74
2022/11/20 07:50:56;;;;;;;15.90;13.32;;;;;;;0.55;74.98;100597.91;1743354;81;21089;-74
2022/11/20 07:53:23;;;;;;;15.40;13.03;;;;;;;0.59;75.05;100591.33;1736820;81;21036;-75
2022/11/20 07:55:52;;;;;;;14.93;12.80;;;;;;;0.60;75.06;100588.66;1728288;81;21832;-75
2022/11/20 07:58:20;;;;;;;14.03;12.23;;;;;;;0.59;75.05;100592.63;1734920;81;21463;-75
2022/11/20 08:00:46;;;;;;;13.60;12.00;;;;;;;0.59;75.13;100584.83;1735741;82;21428;-74
2022/11/20 08:03:15;;;;;;;13.65;11.88;;;;;;;0.59;75.18;100590.88;1735623;81;21078;-76
2022/11/20 08:05:42;;;;;;;13.05;11.22;;;;;;;0.60;75.23;100579.57;1735266;82;20994;-74
2022/11/20 08:08:09;;;;;;;11.60;10.40;;;;;;;0.60;75.25;100578.27;1733791;82;21843;-74
2022/11/20 08:10:35;;;;;;;11.55;10.35;;;;;;;0.61;75.31;100567.42;1752132;81;20981;-74
2022/11/20 08:15:54;;;;;;;11.73;9.98;;;;;;;0.51;75.18;100572.09;1710264;82;21071;-73
2022/11/20 08:18:18;;;;;;;11.25;9.45;;;;;;;0.48;75.32;100575.66;1756621;81;21517;-74
2022/11/20 08:20:46;;;;;;;10.90;9.58;;;;;;;0.43;75.26;100577.55;1711213;81;21948;-74
2022/11/20 08:23:13;;;;;;;10.32;9.03;;;;;;;0.39;75.28;100571.22;1737359;80;21161;-74
2022/11/20 08:25:40;;;;;;;11.15;9.88;;;;;;;0.35;75.30;100561.82;1721161;81;21078;-74
2022/11/20 08:28:09;;;;;;;9.80;8.80;;;;;;;0.32;75.35;100549.80;1748983;81;20981;-74
2022/11/20 08:30:36;;;;;;;11.50;9.55;;;;;;;0.33;75.45;100534.59;1731724;81;21051;-74
2022/11/20 08:33:10;;;;;;;12.73;10.08;;;;;;;0.27;75.54;100536.09;1735399;82;21928;-75
2022/11/20 08:35:38;;;;;;;13.03;9.93;;;;;;;0.23;75.65;100535.82;1733416;82;20978;-73
2022/11/20 08:38:06;;;;;;;12.85;10.25;;;;;;;0.20;75.71;100530.73;1746987;81;20986;-74
2022/11/20 08:40:33;;;;;;;15.13;11.25;;;;;;;0.16;75.81;100529.13;1734101;81;21054;-74
2022/11/20 08:43:00;;;;;;;13.03;10.43;;;;;;;0.15;75.82;100524.39;1732681;81;21396;-72
2022/11/20 08:45:27;;;;;;;12.53;10.45;;;;;;;0.16;75.89;100526.08;1712991;82;21472;-74
2022/11/20 08:47:53;;;;;;;12.37;9.93;;;;;;;0.18;76.00;100521.67;1743005;81;21444;-74
2022/11/20 08:50:20;;;;;;;11.85;10.32;;;;;;;0.19;76.05;100523.40;1767300;81;21048;-74
2022/11/20 08:52:50;;;;;;;11.03;9.43;;;;;;;0.22;76.12;100521.14;1730919;82;21460;-74
2022/11/20 08:55:16;;;;;;;10.53;8.90;;;;;;;0.22;76.10;100518.09;1731878;82;21446;-74
2022/11/20 08:57:44;;;;;;;10.80;9.55;;;;;;;0.20;76.11;100521.65;1715265;82;22627;-74
2022/11/20 09:00:14;;;;;;;11.55;9.25;;;;;;;0.21;76.19;100530.68;1731864;82;21480;-74
2022/11/20 09:02:41;;;;;;;11.68;9.53;;;;;;;0.20;76.12;100530.73;1735460;81;20964;-73
2022/11/20 09:05:08;;;;;;;10.28;9.18;;;;;;;0.15;76.14;100551.66;1724528;81;21013;-74
2022/11/20 09:07:36;;;;;;;12.25;10.40;;;;;;;0.16;76.27;100562.89;1706898;81;21387;-74
2022/11/20 09:10:05;;;;;;;12.30;10.60;;;;;;;0.16;76.28;100572.83;1731657;82;22509;-74
2022/11/20 09:12:31;;;;;;;11.30;9.65;;;;;;;0.15;76.32;100575.48;1710308;82;21400;-73
2022/11/20 09:14:58;;;;;;;11.53;9.80;;;;;;;0.17;76.40;100577.58;1733940;82;21463;-73
2022/11/20 09:17:25;;;;;;;10.32;8.63;;;;;;;0.19;76.43;100556.28;1732789;82;21423;-74
2022/11/20 09:19:52;;;;;;;12.70;10.53;;;;;;;0.19;76.47;100545.48;1732877;82;21102;-73
2022/11/20 09:22:20;;;;;;;12.88;10.05;;;;;;;0.17;76.47;100545.95;1734799;81;21969;-75
2022/11/20 09:24:47;;;;;;;10.43;9.20;;;;;;;0.18;76.53;100554.59;1733831;82;20954;-74
2022/11/20 09:27:14;;;;;;;12.80;9.95;;;;;;;0.18;76.49;100560.63;1732128;82;21040;-73
2022/11/20 09:29:41;;;;;;;9.53;8.50;;;;;;;0.17;76.53;100551.59;1723766;82;20961;-74
2022/11/20 09:32:07;;;;;;;11.95;9.63;;;;;;;0.17;76.59;100538.61;1719634;81;21015;-73
2022/11/20 09:34:35;;;;;;;11.55;9.60;;;;;;;0.18;76.55;100533.81;1729403;82;22512;-73
2022/11/20 09:37:03;;;;;;;10.78;9.63;;;;;;;0.20;76.62;100532.04;1731583;82;21040;-73
2022/11/20 09:39:30;;;;;;;10.48;8.83;;;;;;;0.21;76.51;100537.17;1742764;81;21000;-72
2022/11/20 09:42:22;;;;;;;11.33;9.38;;;;;;;0.17;76.38;100516.53;1670175;85;21033;-73
2022/11/20 09:45:07;;;;;;;10.53;9.43;;;;;;;0.17;76.35;100508.74;1704470;84;20969;-74
2022/11/20 09:47:59;;;;;;;10.95;8.95;;;;;;;0.13;76.34;100498.08;1727368;82;21967;-74
2022/11/20 09:50:47;;;;;;;10.72;9.15;;;;;;;0.11;76.38;100491.64;1731367;82;21008;-75
2022/11/20 09:53:22;;;;;;;8.43;7.20;;;;;;;0.10;76.34;100488.66;1704227;84;21458;-72
2022/11/20 09:55:48;;;;;;;9.65;8.03;;;;;;;0.06;76.28;100474.51;1711652;81;21069;-72
2022/11/20 09:58:34;;;;;;;10.32;8.53;;;;;;;0.04;76.28;100469.83;1731839;82;21020;-74
2022/11/20 10:01:16;;;;;;;8.78;7.87;;;;;;;0.07;76.33;100475.75;1732071;82;21945;-75
2022/11/20 10:04:13;;;;;;;;;;;;;;;0.10;76.33;100473.52;1735200;82;20999;-75
2022/11/20 10:07:08;;;;;;;9.70;7.80;;;;;;;0.12;76.27;100468.66;1723962;81;20158;-74
2022/11/20 10:09:38;;;;;;;10.23;8.75;;;;;;;0.07;76.22;100468.41;1730015;82;21005;-75
2022/11/20 10:12:39;;;;;;;9.15;8.18;;;;;;;0.10;76.28;100472.22;1733782;82;21014;-75
2022/11/20 10:15:19;;;;;;;9.45;8.15;;;;;;;0.16;76.33;100460.30;1720036;82;21457;-74
2022/11/20 10:18:14;;;;;;;9.03;7.78;;;;;;;0.18;76.32;100442.45;1726348;82;21474;-74
2022/11/20 10:21:15;;;;;;;8.73;7.65;;;;;;;0.20;76.31;100440.67;1672840;85;21100;-75
2022/11/20 10:24:02;;;;;;;10.08;8.03;;;;;;;0.20;76.23;100441.13;1740861;81;21017;-74
2022/11/20 10:27:00;;;;;;;9.53;8.38;;;;;;;0.18;76.24;100441.16;1732758;81;21362;-75
2022/11/20 10:29:34;;;;;;;8.85;7.62;;;;;;;0.21;76.26;100430.67;1724029;81;21887;-73
2022/11/20 10:32:07;;;;;;;;;;;;;;;0.21;76.26;100419.44;1735496;82;20957;-74
2022/11/20 10:35:01;;;;;;;9.98;8.48;;;;;;;0.22;76.31;100409.44;1733699;82;20194;-75
2022/11/20 10:37:29;;;;;;;10.35;8.68;;;;;;;0.20;76.29;100397.81;1733429;81;21048;-75
2022/11/20 10:40:25;;;;;;;11.50;9.58;;;;;;;0.17;76.30;100408.75;1735128;81;21049;-74
2022/11/20 10:43:02;;;;;;;11.88;10.00;;;;;;;0.19;76.37;100406.94;1689038;83;22495;-75
2022/11/20 10:45:49;;;;;;;12.05;10.05;;;;;;;0.18;76.40;100398.75;1639868;85;21076;-71
2022/11/20 10:48:22;;;;;;;13.35;10.93;;;;;;;0.19;76.53;100400.02;1662301;83;21507;-72
2022/11/20 10:51:13;;;;;;;12.55;10.05;;;;;;;0.25;76.63;100393.28;1680761;84;21022;-73
2022/11/20 10:54:07;;;;;;;12.50;10.40;;;;;;;0.29;76.64;100387.55;1715991;81;21056;-74
2022/11/20 10:56:44;;;;;;;12.78;10.03;;;;;;;0.29;76.62;100391.44;1728493;82;21437;-74
2022/11/20 10:59:55;;;;;;;11.83;10.25;;;;;;;0.30;76.68;100389.69;1727297;82;21033;-72
2022/11/20 11:02:24;;;;;;;12.60;10.72;;;;;;;0.31;76.72;100387.03;1726795;82;21092;-78
2022/11/20 11:04:53;;;;;;;11.53;9.18;;;;;;;0.34;76.72;100391.25;1725097;80;21574;-79
2022/11/20 11:07:35;;;;;;;11.25;9.78;;;;;;;0.35;76.73;100382.10;1732900;82;21030;-76
2022/11/20 11:10:21;;;;;;;12.00;10.03;;;;;;;0.36;76.65;100376.45;1732972;81;21941;-72
2022/11/20 11:12:52;;;;;;;12.65;10.68;;;;;;;0.39;76.66;100375.06;1715750;82;21465;-78
2022/11/20 11:15:41;;;;;;;11.85;10.28;;;;;;;0.38;76.58;100378.08;1714990;81;21060;-75
2022/11/20 11:18:10;;;;;;;11.93;10.43;;;;;;;0.40;76.64;100369.80;1727966;81;22100;-72
2022/11/20 11:20:37;;;;;;;12.80;10.48;;;;;;;0.44;76.61;100370.52;1735128;81;21020;-74
2022/11/20 11:23:04;;;;;;;12.40;10.65;;;;;;;0.45;76.54;100361.81;1734036;82;21758;-73
2022/11/20 11:25:33;;;;;;;12.53;10.80;;;;;;;0.47;76.56;100356.95;1726587;82;21034;-74
2022/11/20 11:28:05;;;;;;;12.65;11.22;;;;;;;0.52;76.56;100359.38;1722506;81;21067;-74
2022/11/20 11:30:43;;;;;;;12.50;10.75;;;;;;;0.53;76.47;100361.08;1703326;82;21052;-78
2022/11/20 11:33:28;;;;;;;12.23;10.60;;;;;;;0.52;76.49;100360.23;1725568;82;21081;-77
2022/11/20 11:36:07;;;;;;;14.13;12.05;;;;;;;0.53;76.45;100358.02;1698750;82;21908;-76
2022/11/20 11:38:42;;;;;;;12.28;11.00;;;;;;;0.54;76.45;100358.87;1726429;81;21604;-75
2022/11/20 11:41:22;;;;;;;12.95;10.50;;;;;;;0.55;76.51;100357.50;1678397;82;21630;-76
2022/11/20 11:46:56;;;;;;;12.25;10.82;;;;;;;0.52;76.51;100365.88;1707536;82;21036;-77